createdAt,value
2019-05-22T00:01:07.764Z,99.90
2019-05-22T00:03:38.620Z,99.90
2019-05-22T00:06:09.405Z,99.90
2019-05-22T00:08:40.225Z,99.90
2019-05-22T00:11:11.011Z,99.90
2019-05-22T00:13:40.158Z,99.90
2019-05-22T00:16:09.387Z,99.90
2019-05-22T00:18:39.900Z,99.90
2019-05-22T00:21:10.078Z,99.90
2019-05-22T00:23:40.591Z,99.90
2019-05-22T00:26:11.107Z,99.90
2019-05-22T00:28:40.579Z,99.90
2019-05-22T00:31:11.123Z,99.90
2019-05-22T00:33:41.324Z,99.90
2019-05-22T00:36:11.194Z,99.90
2019-05-22T00:38:41.867Z,99.90
2019-05-22T00:41:11.906Z,99.90
2019-05-22T00:43:44.632Z,99.90
2019-05-22T00:46:15.481Z,99.90
2019-05-22T00:48:46.185Z,99.90
2019-05-22T00:51:29.138Z,99.90
2019-05-22T00:54:00.011Z,99.90
2019-05-22T00:56:37.161Z,99.90
2019-05-22T00:59:21.645Z,99.90
2019-05-22T01:02:09.667Z,99.90
2019-05-22T01:04:42.222Z,99.90
2019-05-22T01:07:17.139Z,99.90
2019-05-22T01:09:48.437Z,99.90
2019-05-22T01:12:32.914Z,99.90
2019-05-22T01:15:04.938Z,99.90
2019-05-22T01:17:36.041Z,99.90
2019-05-22T01:20:06.983Z,99.90
2019-05-22T01:22:37.092Z,99.90
2019-05-22T01:25:06.841Z,99.90
2019-05-22T01:27:36.671Z,99.90
2019-05-22T01:30:08.357Z,99.90
2019-05-22T01:32:44.912Z,99.90
2019-05-22T01:35:14.190Z,99.90
2019-05-22T01:37:44.468Z,99.90
2019-05-22T01:40:36.771Z,99.90
2019-05-22T01:43:08.763Z,99.90
2019-05-22T01:45:40.005Z,99.90
2019-05-22T01:48:12.587Z,99.90
2019-05-22T01:50:48.612Z,99.90
2019-05-22T01:53:22.205Z,99.90
2019-05-22T01:55:53.018Z,99.90
2019-05-22T01:58:23.971Z,99.90
2019-05-22T02:00:55.577Z,99.90
2019-05-22T02:03:25.220Z,99.90
2019-05-22T02:05:55.105Z,99.90
2019-05-22T02:08:26.110Z,99.90
2019-05-22T02:10:58.084Z,99.90
2019-05-22T02:13:33.354Z,99.90
2019-05-22T02:16:02.617Z,99.90
2019-05-22T02:18:33.550Z,99.90
2019-05-22T02:21:04.004Z,99.90
2019-05-22T02:23:33.886Z,99.90
2019-05-22T02:26:04.894Z,99.90
2019-05-22T02:28:36.148Z,99.90
2019-05-22T02:31:07.106Z,99.90
2019-05-22T02:33:38.256Z,99.90
2019-05-22T02:36:07.702Z,99.90
2019-05-22T02:38:37.357Z,99.90
2019-05-22T02:41:08.249Z,99.90
2019-05-22T02:43:37.497Z,99.90
2019-05-22T02:46:08.217Z,99.90
2019-05-22T02:48:37.358Z,99.90
2019-05-22T02:51:07.172Z,99.90
2019-05-22T02:53:36.359Z,99.90
2019-05-22T02:56:07.231Z,99.90
2019-05-22T02:58:37.383Z,99.90
2019-05-22T03:01:07.682Z,99.90
2019-05-22T03:03:37.539Z,99.90
2019-05-22T03:06:12.290Z,99.90
2019-05-22T03:09:00.962Z,99.90
2019-05-22T03:11:35.312Z,99.90
2019-05-22T03:14:07.602Z,99.90
2019-05-22T03:16:48.208Z,99.90
2019-05-22T03:19:28.372Z,99.90
2019-05-22T03:21:57.621Z,99.90
2019-05-22T03:24:26.804Z,99.90
2019-05-22T03:26:57.007Z,99.90
2019-05-22T03:29:30.320Z,99.90
2019-05-22T03:31:59.840Z,99.90
2019-05-22T03:34:29.028Z,99.90
2019-05-22T03:36:58.186Z,99.90
2019-05-22T03:39:27.746Z,99.90
2019-05-22T03:41:57.334Z,99.90
2019-05-22T03:44:28.374Z,99.90
2019-05-22T03:46:59.598Z,99.90
2019-05-22T03:49:31.041Z,99.90
2019-05-22T03:52:01.306Z,99.90
2019-05-22T03:54:30.699Z,99.90
2019-05-22T03:56:59.894Z,99.90
2019-05-22T03:59:29.093Z,99.90
2019-05-22T04:01:58.267Z,99.90
2019-05-22T04:04:35.652Z,99.90
2019-05-22T04:07:06.739Z,99.90
2019-05-22T04:09:36.955Z,99.90
2019-05-22T04:12:06.518Z,99.90
2019-05-22T04:14:37.437Z,99.90
2019-05-22T04:17:07.982Z,99.90
2019-05-22T04:19:49.288Z,99.90
2019-05-22T04:22:10.002Z,99.90
2019-05-22T04:24:42.428Z,99.90
2019-05-22T04:27:12.770Z,99.90
2019-05-22T04:29:42.220Z,99.90
2019-05-22T04:32:29.013Z,99.90
2019-05-22T04:34:58.832Z,99.90
2019-05-22T04:37:29.469Z,99.90
2019-05-22T04:40:25.545Z,99.90
2019-05-22T04:42:56.123Z,99.90
2019-05-22T04:45:26.776Z,99.90
2019-05-22T04:47:58.599Z,99.90
2019-05-22T04:50:29.093Z,99.90
2019-05-22T04:52:59.862Z,99.90
2019-05-22T04:55:30.210Z,99.90
2019-05-22T04:58:11.211Z,99.90
2019-05-22T05:00:40.957Z,99.90
2019-05-22T05:03:10.852Z,99.90
2019-05-22T05:05:41.698Z,99.90
2019-05-22T05:08:14.303Z,99.90
2019-05-22T05:10:47.896Z,99.90
2019-05-22T05:13:17.550Z,99.90
2019-05-22T05:15:46.784Z,99.90
2019-05-22T05:18:16.133Z,99.90
2019-05-22T05:20:45.283Z,99.90
2019-05-22T05:23:14.467Z,99.90
2019-05-22T05:25:47.887Z,99.90
2019-05-22T05:28:17.134Z,99.90
2019-05-22T05:30:46.294Z,99.90
2019-05-22T05:33:15.462Z,99.90
2019-05-22T05:35:44.626Z,99.90
2019-05-22T05:38:13.997Z,99.90
2019-05-22T05:40:43.181Z,99.90
2019-05-22T05:43:13.220Z,99.90
2019-05-22T05:45:43.396Z,99.90
2019-05-22T05:48:15.582Z,99.90
2019-05-22T05:51:07.278Z,99.90
2019-05-22T05:54:06.962Z,99.90
2019-05-22T05:56:37.462Z,99.90
2019-05-22T05:59:08.511Z,99.90
2019-05-22T06:01:39.732Z,99.90
2019-05-22T06:04:09.088Z,99.90
2019-05-22T06:06:44.465Z,99.90
2019-05-22T06:09:18.072Z,99.90
2019-05-22T06:11:48.987Z,99.90
2019-05-22T06:14:25.326Z,99.90
2019-05-22T06:17:38.734Z,99.90
2019-05-22T06:20:12.716Z,99.90
2019-05-22T06:22:42.710Z,99.90
2019-05-22T06:25:12.532Z,99.90
2019-05-22T06:27:43.538Z,99.90
2019-05-22T06:30:16.418Z,99.90
2019-05-22T06:32:57.984Z,99.90
2019-05-22T06:35:31.921Z,99.90
2019-05-22T06:38:19.723Z,99.90
2019-05-22T06:40:48.926Z,99.90
2019-05-22T06:43:28.876Z,99.90
2019-05-22T06:45:58.088Z,99.90
2019-05-22T06:48:27.327Z,99.90
2019-05-22T06:50:56.775Z,99.90
2019-05-22T06:53:26.321Z,99.90
2019-05-22T06:55:59.224Z,99.90
2019-05-22T06:58:28.643Z,99.90
2019-05-22T07:00:58.125Z,99.90
2019-05-22T07:03:27.952Z,99.90
2019-05-22T07:05:57.794Z,99.90
2019-05-22T07:08:27.318Z,99.90
2019-05-22T07:10:56.585Z,99.90
2019-05-22T07:13:25.793Z,99.90
2019-05-22T07:15:56.069Z,99.90
2019-05-22T07:18:26.897Z,99.90
2019-05-22T07:20:56.764Z,99.80
2019-05-22T07:23:27.769Z,99.90
2019-05-22T07:25:57.548Z,99.90
2019-05-22T07:28:27.853Z,99.90
2019-05-22T07:30:57.021Z,99.70
2019-05-22T07:33:26.261Z,99.90
2019-05-22T07:36:15.845Z,99.90
2019-05-22T07:38:26.947Z,99.90
2019-05-22T07:40:56.149Z,99.90
2019-05-22T07:43:25.636Z,99.90
2019-05-22T07:45:55.443Z,99.90
2019-05-22T07:48:26.570Z,99.90
2019-05-22T07:50:56.906Z,99.90
2019-05-22T07:53:26.813Z,99.90
2019-05-22T07:55:57.708Z,99.70
2019-05-22T07:58:28.389Z,99.60
2019-05-22T08:00:59.320Z,99.10
2019-05-22T08:03:31.670Z,97.90
2019-05-22T08:06:01.352Z,97.70
2019-05-22T08:08:32.736Z,97.60
2019-05-22T08:11:01.964Z,97.00
2019-05-22T08:13:32.203Z,97.50
2019-05-22T08:16:01.733Z,97.50
2019-05-22T08:18:32.863Z,96.70
2019-05-22T08:21:02.243Z,96.80
2019-05-22T08:23:31.473Z,95.90
2019-05-22T08:26:00.651Z,95.50
2019-05-22T08:28:31.816Z,95.30
2019-05-22T08:31:01.611Z,95.70
2019-05-22T08:33:32.383Z,96.10
2019-05-22T08:36:05.675Z,96.90
2019-05-22T08:38:35.234Z,97.40
2019-05-22T08:41:06.975Z,97.90
2019-05-22T08:43:56.054Z,97.70
2019-05-22T08:46:07.360Z,96.80
2019-05-22T08:48:39.008Z,96.10
2019-05-22T08:51:08.796Z,96.20
2019-05-22T08:53:47.356Z,95.80
2019-05-22T08:56:10.392Z,94.40
2019-05-22T08:58:39.703Z,95.20
2019-05-22T09:01:10.458Z,95.30
2019-05-22T09:03:40.317Z,94.10
2019-05-22T09:06:09.641Z,93.50
2019-05-22T09:08:39.044Z,92.60
2019-05-22T09:11:08.482Z,91.40
2019-05-22T09:13:38.049Z,91.70
2019-05-22T09:16:08.977Z,91.60
2019-05-22T09:18:38.330Z,91.90
2019-05-22T09:21:07.762Z,91.80
2019-05-22T09:23:36.942Z,91.40
2019-05-22T09:26:06.366Z,90.90
2019-05-22T09:28:35.535Z,90.90
2019-05-22T09:31:05.718Z,91.10
2019-05-22T09:33:36.238Z,90.80
2019-05-22T09:36:06.907Z,90.70
2019-05-22T09:38:36.139Z,92.00
2019-05-22T09:41:05.426Z,92.50
2019-05-22T09:43:34.765Z,92.50
2019-05-22T09:46:04.742Z,93.00
2019-05-22T09:48:34.499Z,93.00
2019-05-22T09:51:03.845Z,93.70
2019-05-22T09:53:34.956Z,93.70
2019-05-22T09:56:04.694Z,93.50
2019-05-22T09:58:34.163Z,93.60
2019-05-22T10:01:03.398Z,93.50
2019-05-22T10:03:32.968Z,94.40
2019-05-22T10:06:02.600Z,94.80
2019-05-22T10:08:32.005Z,95.20
2019-05-22T10:11:01.460Z,95.00
2019-05-22T10:13:32.208Z,94.70
2019-05-22T10:16:01.586Z,94.90
2019-05-22T10:18:30.927Z,94.60
2019-05-22T10:21:00.233Z,94.10
2019-05-22T10:23:30.540Z,93.30
2019-05-22T10:25:59.757Z,92.00
2019-05-22T10:28:29.083Z,89.00
2019-05-22T10:30:59.118Z,89.10
2019-05-22T10:33:29.077Z,88.00
2019-05-22T10:35:59.549Z,89.00
2019-05-22T10:38:28.957Z,86.10
2019-05-22T10:40:59.536Z,86.50
2019-05-22T10:43:29.409Z,87.70
2019-05-22T10:45:58.704Z,88.70
2019-05-22T10:48:28.028Z,88.70
2019-05-22T10:50:57.250Z,89.70
2019-05-22T10:53:33.642Z,90.00
2019-05-22T10:55:57.358Z,90.50
2019-05-22T10:58:26.531Z,89.70
2019-05-22T11:00:55.773Z,90.30
2019-05-22T11:03:25.037Z,90.70
2019-05-22T11:06:06.409Z,91.30
2019-05-22T11:08:30.402Z,92.30
2019-05-22T11:10:57.303Z,92.60
2019-05-22T11:13:27.240Z,91.70
2019-05-22T11:15:58.345Z,91.90
2019-05-22T11:18:27.715Z,91.70
2019-05-22T11:20:56.962Z,91.60
2019-05-22T11:23:26.882Z,91.90
2019-05-22T11:25:56.164Z,91.60
2019-05-22T11:28:27.915Z,91.50
2019-05-22T11:30:58.116Z,91.80
2019-05-22T11:33:27.298Z,93.20
2019-05-22T11:35:56.538Z,93.40
2019-05-22T11:38:25.758Z,93.80
2019-05-22T11:40:54.912Z,94.00
2019-05-22T11:43:24.145Z,93.70
2019-05-22T11:45:53.599Z,93.20
2019-05-22T11:48:22.849Z,92.50
2019-05-22T11:50:52.925Z,91.90
2019-05-22T11:53:22.126Z,91.00
2019-05-22T11:55:52.185Z,90.70
2019-05-22T11:58:21.850Z,89.10
2019-05-22T12:00:51.118Z,86.30
2019-05-22T12:03:20.768Z,85.90
2019-05-22T12:05:50.556Z,84.50
2019-05-22T12:08:19.845Z,84.60
2019-05-22T12:10:49.313Z,84.40
2019-05-22T12:13:18.719Z,83.90
2019-05-22T12:15:47.917Z,83.60
2019-05-22T12:18:17.605Z,83.10
2019-05-22T12:20:46.781Z,83.90
2019-05-22T12:23:16.083Z,83.60
2019-05-22T12:25:45.337Z,85.30
2019-05-22T12:28:14.772Z,85.70
2019-05-22T12:30:43.923Z,86.50
2019-05-22T12:33:14.320Z,86.40
2019-05-22T12:35:43.933Z,84.80
2019-05-22T12:38:14.552Z,83.90
2019-05-22T12:40:46.554Z,82.50
2019-05-22T12:43:16.071Z,82.20
2019-05-22T12:45:45.298Z,82.60
2019-05-22T12:48:14.645Z,83.90
2019-05-22T12:50:44.886Z,85.40
2019-05-22T12:53:15.327Z,84.80
2019-05-22T12:55:44.478Z,83.20
2019-05-22T12:58:13.720Z,80.30
2019-05-22T13:00:42.916Z,79.80
2019-05-22T13:03:12.707Z,80.50
2019-05-22T13:05:41.914Z,83.50
2019-05-22T13:08:11.420Z,84.00
2019-05-22T13:10:40.615Z,82.50
2019-05-22T13:13:09.785Z,79.10
2019-05-22T13:15:39.318Z,77.70
2019-05-22T13:18:09.943Z,76.40
2019-05-22T13:20:43.217Z,77.00
2019-05-22T13:23:11.642Z,75.60
2019-05-22T13:25:41.070Z,76.20
2019-05-22T13:28:12.368Z,76.30
2019-05-22T13:30:42.818Z,76.00
2019-05-22T13:33:15.933Z,75.60
2019-05-22T13:35:45.569Z,74.20
2019-05-22T13:38:15.429Z,74.70
2019-05-22T13:40:45.300Z,74.80
2019-05-22T13:43:14.477Z,76.50
2019-05-22T13:45:44.075Z,76.20
2019-05-22T13:48:13.327Z,77.40
2019-05-22T13:50:42.767Z,77.70
2019-05-22T13:53:13.027Z,77.20
2019-05-22T13:55:42.519Z,76.80
2019-05-22T13:58:11.762Z,76.40
2019-05-22T14:00:40.969Z,76.10
2019-05-22T14:03:10.240Z,75.20
2019-05-22T14:05:39.895Z,74.50
2019-05-22T14:08:09.394Z,75.20
2019-05-22T14:10:38.917Z,75.50
2019-05-22T14:13:08.769Z,74.50
2019-05-22T14:15:50.359Z,75.00
2019-05-22T14:18:08.866Z,76.40
2019-05-22T14:20:38.138Z,79.70
2019-05-22T14:23:07.402Z,81.80
2019-05-22T14:25:36.823Z,82.40
2019-05-22T14:28:07.162Z,81.80
2019-05-22T14:30:36.809Z,81.10
2019-05-22T14:33:05.967Z,80.30
2019-05-22T14:35:47.590Z,79.80
2019-05-22T14:38:08.138Z,78.80
2019-05-22T14:40:37.889Z,77.10
2019-05-22T14:43:07.489Z,77.00
2019-05-22T14:45:37.743Z,76.00
2019-05-22T14:48:06.891Z,74.80
2019-05-22T14:50:36.070Z,74.00
2019-05-22T14:53:05.263Z,75.30
2019-05-22T14:55:34.760Z,74.60
2019-05-22T14:58:04.894Z,75.00
2019-05-22T15:00:34.400Z,75.20
2019-05-22T15:03:03.709Z,74.10
2019-05-22T15:05:32.986Z,74.40
2019-05-22T15:08:02.157Z,74.30
2019-05-22T15:10:32.091Z,74.10
2019-05-22T15:13:01.399Z,73.00
2019-05-22T15:15:31.681Z,73.80
2019-05-22T15:18:00.963Z,75.00
2019-05-22T15:20:32.659Z,74.60
2019-05-22T15:23:02.071Z,76.40
2019-05-22T15:25:31.938Z,77.30
2019-05-22T15:28:01.339Z,78.60
2019-05-22T15:30:31.033Z,80.00
2019-05-22T15:33:00.194Z,79.30
2019-05-22T15:35:29.445Z,79.90
2019-05-22T15:37:59.143Z,78.80
2019-05-22T15:40:28.306Z,78.40
2019-05-22T15:42:57.667Z,78.90
2019-05-22T15:45:27.476Z,80.10
2019-05-22T15:48:00.878Z,80.00
2019-05-22T15:50:36.013Z,81.50
2019-05-22T15:53:11.908Z,79.80
2019-05-22T15:55:41.390Z,79.00
2019-05-22T15:58:11.991Z,79.50
2019-05-22T16:00:42.900Z,80.20
2019-05-22T16:03:17.811Z,80.40
2019-05-22T16:05:48.147Z,81.30
2019-05-22T16:08:17.646Z,81.00
2019-05-22T16:10:48.453Z,80.80
2019-05-22T16:13:20.239Z,80.30
2019-05-22T16:15:51.857Z,80.80
2019-05-22T16:18:24.325Z,81.70
2019-05-22T16:20:55.027Z,82.40
2019-05-22T16:23:24.576Z,82.80
2019-05-22T16:25:54.073Z,82.80
2019-05-22T16:28:24.880Z,82.90
2019-05-22T16:30:54.907Z,82.70
2019-05-22T16:33:25.013Z,81.40
2019-05-22T16:35:54.591Z,81.10
2019-05-22T16:38:23.908Z,80.40
2019-05-22T16:40:53.387Z,80.00
2019-05-22T16:43:22.703Z,81.10
2019-05-22T16:45:52.007Z,81.60
2019-05-22T16:48:28.933Z,82.40
2019-05-22T16:50:52.660Z,82.10
2019-05-22T16:53:23.080Z,81.80
2019-05-22T16:55:55.014Z,81.40
2019-05-22T16:58:24.531Z,80.90
2019-05-22T17:00:56.656Z,80.80
2019-05-22T17:03:25.971Z,80.40
2019-05-22T17:05:55.182Z,79.40
2019-05-22T17:08:25.728Z,79.60
2019-05-22T17:10:57.299Z,79.60
2019-05-22T17:13:28.034Z,80.00
2019-05-22T17:15:57.759Z,79.50
2019-05-22T17:18:45.537Z,80.00
2019-05-22T17:20:59.708Z,80.50
2019-05-22T17:23:29.067Z,80.30
2019-05-22T17:25:58.741Z,81.10
2019-05-22T17:28:27.994Z,81.50
2019-05-22T17:30:57.179Z,82.10
2019-05-22T17:33:26.982Z,82.70
2019-05-22T17:35:56.750Z,83.20
2019-05-22T17:38:26.324Z,83.00
2019-05-22T17:40:57.107Z,83.30
2019-05-22T17:43:26.520Z,84.10
2019-05-22T17:45:55.758Z,84.70
2019-05-22T17:48:25.792Z,85.60
2019-05-22T17:50:55.173Z,84.30
2019-05-22T17:53:24.551Z,84.80
2019-05-22T17:55:53.725Z,85.20
2019-05-22T17:58:27.160Z,85.60
2019-05-22T18:00:54.394Z,85.60
2019-05-22T18:03:24.544Z,85.20
2019-05-22T18:05:53.836Z,85.50
2019-05-22T18:08:24.010Z,86.20
2019-05-22T18:10:53.454Z,86.30
2019-05-22T18:13:22.954Z,86.60
2019-05-22T18:15:52.258Z,86.50
2019-05-22T18:18:21.650Z,86.80
2019-05-22T18:20:50.954Z,87.00
2019-05-22T18:23:20.499Z,87.40
2019-05-22T18:25:49.824Z,87.80
2019-05-22T18:28:19.133Z,87.80
2019-05-22T18:30:48.550Z,88.00
2019-05-22T18:33:17.813Z,88.20
2019-05-22T18:35:47.403Z,89.00
2019-05-22T18:38:16.573Z,88.80
2019-05-22T18:40:47.765Z,88.10
2019-05-22T18:43:18.949Z,87.90
2019-05-22T18:45:47.855Z,88.10
2019-05-22T18:48:17.191Z,88.80
2019-05-22T18:50:46.532Z,88.90
2019-05-22T18:53:15.949Z,88.40
2019-05-22T18:55:45.288Z,88.70
2019-05-22T18:58:14.713Z,89.70
2019-05-22T19:00:43.967Z,90.00
2019-05-22T19:03:13.913Z,90.00
2019-05-22T19:08:15.159Z,90.00
2019-05-22T19:10:44.387Z,90.40
2019-05-22T19:13:14.621Z,90.40
2019-05-22T19:15:44.341Z,90.40
2019-05-22T19:18:13.760Z,90.40
2019-05-22T19:20:43.815Z,90.50
2019-05-22T19:23:13.077Z,90.70
2019-05-22T19:25:42.420Z,90.90
2019-05-22T19:28:11.730Z,91.00
2019-05-22T19:30:41.219Z,91.00
2019-05-22T19:33:14.661Z,90.80
2019-05-22T19:35:42.484Z,90.70
2019-05-22T19:38:12.947Z,90.50
2019-05-22T19:40:42.255Z,90.70
2019-05-22T19:43:11.880Z,90.90
2019-05-22T19:45:41.256Z,90.90
2019-05-22T19:48:11.416Z,91.10
2019-05-22T19:50:41.030Z,91.60
2019-05-22T19:53:18.869Z,91.50
2019-05-22T19:55:43.888Z,91.80
2019-05-22T19:58:13.421Z,91.60
2019-05-22T20:00:43.007Z,92.10
2019-05-22T20:03:14.237Z,92.30
2019-05-22T20:05:44.624Z,92.40
2019-05-22T20:08:14.108Z,92.20
2019-05-22T20:10:43.351Z,92.70
2019-05-22T20:13:12.742Z,93.10
2019-05-22T20:15:42.292Z,93.80
2019-05-22T20:18:11.623Z,94.00
2019-05-22T20:20:41.108Z,94.60
2019-05-22T20:23:10.368Z,94.60
2019-05-22T20:25:52.437Z,95.20
2019-05-22T20:28:21.995Z,95.80
2019-05-22T20:30:51.207Z,96.00
2019-05-22T20:33:20.697Z,96.30
2019-05-22T20:35:50.286Z,96.30
2019-05-22T20:38:19.590Z,96.80
2019-05-22T20:40:49.306Z,97.00
2019-05-22T20:43:18.650Z,97.30
2019-05-22T20:45:47.884Z,97.20
2019-05-22T20:48:24.577Z,97.30
2019-05-22T20:50:55.857Z,97.00
2019-05-22T20:53:25.049Z,97.50
2019-05-22T20:55:54.512Z,97.50
2019-05-22T20:58:23.914Z,97.30
2019-05-22T21:00:53.297Z,97.40
2019-05-22T21:03:23.666Z,97.90
2019-05-22T21:05:54.196Z,97.90
2019-05-22T21:08:24.451Z,98.00
2019-05-22T21:10:56.174Z,98.00
2019-05-22T21:13:26.237Z,98.30
2019-05-22T21:15:55.919Z,98.40
2019-05-22T21:18:29.490Z,98.60
2019-05-22T21:20:58.646Z,98.70
2019-05-22T21:23:29.589Z,98.90
2019-05-22T21:25:58.933Z,99.10
2019-05-22T21:28:28.197Z,99.10
2019-05-22T21:30:57.601Z,99.30
2019-05-22T21:33:26.788Z,99.50
2019-05-22T21:35:55.965Z,99.60
2019-05-22T21:38:26.216Z,99.80
2019-05-22T21:40:55.745Z,99.90
2019-05-22T21:43:25.197Z,99.90
2019-05-22T21:45:54.404Z,99.90
2019-05-22T21:48:23.631Z,99.90
2019-05-22T21:50:52.806Z,99.90
2019-05-22T21:53:22.045Z,99.90
2019-05-22T21:56:03.660Z,99.90
2019-05-22T21:58:22.522Z,99.90
2019-05-22T22:00:56.613Z,99.90
2019-05-22T22:03:38.734Z,99.90
2019-05-22T22:06:08.186Z,99.90
2019-05-22T22:08:37.409Z,99.90
2019-05-22T22:11:08.274Z,99.90
2019-05-22T22:13:38.119Z,99.90
2019-05-22T22:16:07.944Z,99.90
2019-05-22T22:18:38.851Z,99.90
2019-05-22T22:21:09.590Z,99.90
2019-05-22T22:23:40.159Z,99.90
2019-05-22T22:26:24.904Z,99.90
2019-05-22T22:28:41.787Z,99.90
2019-05-22T22:31:13.019Z,99.90
2019-05-22T22:33:42.355Z,99.90
2019-05-22T22:36:11.503Z,99.90
2019-05-22T22:38:42.391Z,99.90
2019-05-22T22:41:12.205Z,99.90
2019-05-22T22:43:43.155Z,99.90
2019-05-22T22:46:19.889Z,99.90
2019-05-22T22:48:50.758Z,99.90
2019-05-22T22:51:20.298Z,99.90
2019-05-22T22:53:50.204Z,99.90
2019-05-22T22:56:19.445Z,99.90
2019-05-22T22:58:48.604Z,99.90
2019-05-22T23:01:25.571Z,99.90
2019-05-22T23:03:55.086Z,99.90
2019-05-22T23:06:24.250Z,99.90
2019-05-22T23:08:53.489Z,99.90
2019-05-22T23:11:22.675Z,99.90
2019-05-22T23:13:52.725Z,99.90
2019-05-22T23:16:23.471Z,99.90
2019-05-22T23:19:15.822Z,99.90
2019-05-22T23:21:45.405Z,99.90
2019-05-22T23:24:16.703Z,99.90
2019-05-22T23:26:45.915Z,99.90
2019-05-22T23:29:15.646Z,99.90
2019-05-22T23:31:45.243Z,99.90
2019-05-22T23:34:14.884Z,99.90
2019-05-22T23:36:44.316Z,99.90
2019-05-22T23:39:15.119Z,99.90
2019-05-22T23:41:45.164Z,99.90
2019-05-22T23:44:14.530Z,99.90
2019-05-22T23:46:44.353Z,99.90
2019-05-22T23:49:13.842Z,99.90
2019-05-22T23:51:43.581Z,99.90
2019-05-22T23:54:13.213Z,99.90
2019-05-22T23:56:44.068Z,99.90
2019-05-22T23:59:13.947Z,99.90
